Brushy Creek, Texas
Current Conditions -  °F | °C
As of 7:51 AM on Thursday 18 Dec 2014 (Local Time) from KATT Reporting Station
Haze Haze  
Wind Chill: 50°   Ceiling: 400
Heat Index: 50°   Visibility: 1.2mi
Dew Point: 49°   Wind: 3mph
Humidity: 96%   Direction: 330°NNW
Pressure: 30.13"   Gusts: NA
Location:  30.4953°N, 97.7592°W
Report Text: KATT 181351Z AUTO 33003KT 1 1/4SM BR OVC004 10/09 A3013 RMK AO2 SLP205 T01000094
Loading
Personal Weather Stations






























Interactive Weather Map New forecast layout! Learn more

10-Day Weather Forecast

Advertisements
Track Severe Weather on mobile